Friday, March 27, 2015
03:39 UTC
  |  Log In   |  Register Free
Airport Search:

Fort Smith Regional Airport
(KFSM)

FAA data valid effective March 05, 2015 - April 30, 2015 (unless otherwise noted).

 
 
 
 
 
 
 
 
 
 
 
 
 
 

Current Aviation Weather for Fort Smith Regional Airport (KFSM)

The most recent METAR observation for KFSM was updated at: 1409
METAR Summary (Translated METAR)
KFSM
251353Z 04006KT 10SM SCT040 16/09 A2995 RMK AO2 SLP138 T01610089
KJSV
251355Z AUTO 09003KT 10SM OVC035 18/10 A2994 RMK AO2
(22.2 nm NW from KFSM)
KRKR
251355Z AUTO 00000KT 10SM OVC036 20/14 A2993 RMK AO2 T01950139
(22.6 nm SW from KFSM)
TAF Summary (Translated TAF)
KFSM
251120Z 2512/2612 VRB05KT P6SM SCT050 FM251400 11010KT P6SM BKN035 FM251800 16012KT P6SM BKN035 PROB30 2521/2603 4SM TSRA BKN025CB FM260300 22011KT 4SM -TSRA BKN035CB FM260500 29015G22KT 5SM -TSRA BKN025CB
  Airport Weather Conditions for KFSM

 Current Weather at FSM
51° F
Fair
Northwest winds at 4.6 mph
FSM NOAA Radar

Pressure: 30.11 in
Humidity: 43%
Wind: Northwest at 4.6 MPH (4 KT)
Dew Point: 28.9°F
Visibility: 10.00 mi


Airport Weather Forecast for KFSM

Translated METAR and TAF for KFSM
Translated METAR for KFSM (0338 UTC 27 March 2015)
found at http://aviationweather.gov/adds/metars/
 
METAR text: KFSM 270253Z 33004KT 10SM CLR 11/M02 A3011 RMK AO2 SLP195 T01061017 51012
Conditions at: KFSM (FORT SMITH , AR, US) observed 0253 UTC 27 March 2015
Temperature: 10.6°C (51°F)
Dewpoint: -1.7°C (29°F) [RH = 42%]
Pressure (altimeter): 30.11 inches Hg (1019.7 mb)
[Sea-level pressure: 1019.5 mb]
Winds: from the NNW (330 degrees) at 5 MPH (4 knots; 2.1 m/s)
Visibility: 10 or more miles (16+ km)
Ceiling: at least 12,000 feet AGL
Clouds: sky clear below 12,000 feet AGL
Weather: no significant weather observed at this time
Translated TAF for KFSM
Forecast for: KFSM (FORT SMITH , AR, US)
TAF Text: KFSM 262337Z 2700/2724 34008KT P6SM SKC
Forecast period: 0000 to 0600 UTC 27 March 2015
Forecast type: FROM: standard forecast or significant change
Winds: from the NNW (340 degrees) at 9 MPH (8 knots; 4.2 m/s)
Visibility: 6 or more miles (10+ km)
Clouds: clear skies
Weather: no significant weather forecast for this period
TAF Text: FM270600 VRB03KT P6SM BKN080
Forecast period: 0600 to 1300 UTC 27 March 2015
Forecast type: FROM: standard forecast or significant change
Winds: variable direction winds at 3 MPH (3 knots; 1.6 m/s)
Visibility: 6 or more miles (10+ km)
Ceiling: 8000 feet AGL
Clouds: broken clouds at 8000 feet AGL
Weather: no significant weather forecast for this period
TAF Text: FM271300 04007KT P6SM BKN060
Forecast period: 1300 to 1800 UTC 27 March 2015
Forecast type: FROM: standard forecast or significant change
Winds: from the NE (40 degrees) at 8 MPH (7 knots; 3.6 m/s)
Visibility: 6 or more miles (10+ km)
Ceiling: 6000 feet AGL
Clouds: broken clouds at 6000 feet AGL
Weather: no significant weather forecast for this period
TAF Text: FM271800 01010KT P6SM SCT060 BKN100
Forecast period: 1800 UTC 27 March 2015 to 0000 UTC 28 March 2015
Forecast type: FROM: standard forecast or significant change
Winds: from the N (10 degrees) at 12 MPH (10 knots; 5.2 m/s)
Visibility: 6 or more miles (10+ km)
Ceiling: 10000 feet AGL
Clouds: scattered clouds at 6000 feet AGL
broken clouds at 10000 feet AGL
Weather: no significant weather forecast for this period

Find All Airport Services Find A Hotel Find A Rental Car Find A Golf Course Find A Restaurant $100 Hamburger



FBO's on the Field
FBO Company Facility Photos Services Transportation Aviation Fuel Prices: Prices include tax
Catering Weather Repair Courtesy Rental Type 100LL JetA JetA+ MOGAS 8087
 
TAC Air - FSM

This FBO has not yet been rated
FS:Independent
Last Updated: Mar-25
Login to update fuel prices
SS:
Contact TAC Air - FSMMore FBO Information
 
Add another FBO Facility Photos Catering Weather Repair Courtesy Rental Type 100LL JetA JetA+ MOGAS 8087
Services Transportation Aviation Fuel Prices: Prices include tax


model-print
model-print
model-print
model-print